sensor_id;sensor_type;location;lat;lon;timestamp;P1;durP1;ratioP1;P2;durP2;ratioP2
14001;SDS011;7076;51.280;12.584;2022-11-23T00:01:26;6.40;;;3.70;;
14001;SDS011;7076;51.280;12.584;2022-11-23T00:06:30;3.90;;;3.10;;
14001;SDS011;7076;51.280;12.584;2022-11-23T00:11:33;5.27;;;3.13;;
14001;SDS011;7076;51.280;12.584;2022-11-23T00:16:38;7.30;;;3.30;;
14001;SDS011;7076;51.280;12.584;2022-11-23T00:21:40;7.20;;;3.43;;
14001;SDS011;7076;51.280;12.584;2022-11-23T00:26:43;4.20;;;3.17;;
14001;SDS011;7076;51.280;12.584;2022-11-23T00:31:47;4.67;;;2.70;;
14001;SDS011;7076;51.280;12.584;2022-11-23T00:36:50;4.10;;;3.37;;
14001;SDS011;7076;51.280;12.584;2022-11-23T00:41:53;4.43;;;3.13;;
14001;SDS011;7076;51.280;12.584;2022-11-23T00:46:57;4.47;;;3.00;;
14001;SDS011;7076;51.280;12.584;2022-11-23T00:52:00;6.43;;;3.43;;
14001;SDS011;7076;51.280;12.584;2022-11-23T00:57:03;4.23;;;3.20;;
14001;SDS011;7076;51.280;12.584;2022-11-23T01:02:07;3.90;;;2.90;;
14001;SDS011;7076;51.280;12.584;2022-11-23T01:07:11;4.83;;;2.90;;
14001;SDS011;7076;51.280;12.584;2022-11-23T01:12:13;5.17;;;3.20;;
14001;SDS011;7076;51.280;12.584;2022-11-23T01:17:22;4.60;;;2.67;;
14001;SDS011;7076;51.280;12.584;2022-11-23T01:22:25;5.83;;;3.20;;
14001;SDS011;7076;51.280;12.584;2022-11-23T01:27:28;3.30;;;2.83;;
14001;SDS011;7076;51.280;12.584;2022-11-23T01:32:33;6.93;;;3.30;;
14001;SDS011;7076;51.280;12.584;2022-11-23T01:37:36;5.30;;;3.40;;
14001;SDS011;7076;51.280;12.584;2022-11-23T01:42:46;6.40;;;3.50;;
14001;SDS011;7076;51.280;12.584;2022-11-23T01:47:52;6.67;;;3.03;;
14001;SDS011;7076;51.280;12.584;2022-11-23T01:52:55;4.23;;;3.00;;
14001;SDS011;7076;51.280;12.584;2022-11-23T01:57:59;6.47;;;3.07;;
14001;SDS011;7076;51.280;12.584;2022-11-23T02:03:04;4.00;;;2.77;;
14001;SDS011;7076;51.280;12.584;2022-11-23T02:08:08;5.43;;;2.87;;
14001;SDS011;7076;51.280;12.584;2022-11-23T02:13:11;4.20;;;2.80;;
14001;SDS011;7076;51.280;12.584;2022-11-23T02:18:18;4.33;;;2.63;;
14001;SDS011;7076;51.280;12.584;2022-11-23T02:23:27;4.43;;;2.47;;
14001;SDS011;7076;51.280;12.584;2022-11-23T02:28:36;5.13;;;2.97;;
14001;SDS011;7076;51.280;12.584;2022-11-23T02:33:41;6.23;;;2.93;;
14001;SDS011;7076;51.280;12.584;2022-11-23T02:38:44;3.60;;;2.67;;
14001;SDS011;7076;51.280;12.584;2022-11-23T02:43:48;4.80;;;2.30;;
14001;SDS011;7076;51.280;12.584;2022-11-23T02:48:54;5.60;;;3.23;;
14001;SDS011;7076;51.280;12.584;2022-11-23T02:54:01;4.47;;;2.60;;
14001;SDS011;7076;51.280;12.584;2022-11-23T02:59:06;3.67;;;2.40;;
14001;SDS011;7076;51.280;12.584;2022-11-23T03:04:09;5.13;;;3.20;;
14001;SDS011;7076;51.280;12.584;2022-11-23T03:09:12;4.37;;;2.53;;
14001;SDS011;7076;51.280;12.584;2022-11-23T03:14:16;4.10;;;2.43;;
14001;SDS011;7076;51.280;12.584;2022-11-23T03:19:24;3.83;;;2.53;;
14001;SDS011;7076;51.280;12.584;2022-11-23T03:24:27;4.17;;;2.90;;
14001;SDS011;7076;51.280;12.584;2022-11-23T03:29:32;3.80;;;2.57;;
14001;SDS011;7076;51.280;12.584;2022-11-23T03:34:41;5.13;;;2.80;;
14001;SDS011;7076;51.280;12.584;2022-11-23T03:39:44;6.30;;;2.90;;
14001;SDS011;7076;51.280;12.584;2022-11-23T03:44:58;3.73;;;2.97;;
14001;SDS011;7076;51.280;12.584;2022-11-23T03:50:01;5.30;;;2.80;;
14001;SDS011;7076;51.280;12.584;2022-11-23T03:55:05;5.20;;;3.07;;
14001;SDS011;7076;51.280;12.584;2022-11-23T04:00:10;4.10;;;2.93;;
14001;SDS011;7076;51.280;12.584;2022-11-23T04:05:18;5.87;;;3.43;;
14001;SDS011;7076;51.280;12.584;2022-11-23T04:10:55;5.43;;;3.10;;
14001;SDS011;7076;51.280;12.584;2022-11-23T04:16:09;4.97;;;3.20;;
14001;SDS011;7076;51.280;12.584;2022-11-23T04:21:12;4.77;;;3.70;;
14001;SDS011;7076;51.280;12.584;2022-11-23T04:26:16;7.90;;;3.90;;
14001;SDS011;7076;51.280;12.584;2022-11-23T04:31:22;7.20;;;4.13;;
14001;SDS011;7076;51.280;12.584;2022-11-23T04:36:34;5.43;;;3.90;;
14001;SDS011;7076;51.280;12.584;2022-11-23T04:41:37;6.27;;;3.70;;
14001;SDS011;7076;51.280;12.584;2022-11-23T04:46:42;5.60;;;2.97;;
14001;SDS011;7076;51.280;12.584;2022-11-23T04:51:47;5.43;;;3.77;;
14001;SDS011;7076;51.280;12.584;2022-11-23T04:56:52;5.60;;;3.73;;
14001;SDS011;7076;51.280;12.584;2022-11-23T05:01:57;4.50;;;3.33;;
14001;SDS011;7076;51.280;12.584;2022-11-23T05:07:12;5.37;;;3.73;;
14001;SDS011;7076;51.280;12.584;2022-11-23T05:12:19;5.10;;;3.90;;
14001;SDS011;7076;51.280;12.584;2022-11-23T05:17:23;5.13;;;3.50;;
14001;SDS011;7076;51.280;12.584;2022-11-23T05:22:27;8.03;;;4.43;;
14001;SDS011;7076;51.280;12.584;2022-11-23T05:27:30;5.20;;;3.43;;
14001;SDS011;7076;51.280;12.584;2022-11-23T05:32:35;6.77;;;3.73;;
14001;SDS011;7076;51.280;12.584;2022-11-23T05:37:38;6.17;;;3.70;;
14001;SDS011;7076;51.280;12.584;2022-11-23T05:42:44;4.57;;;2.90;;
14001;SDS011;7076;51.280;12.584;2022-11-23T05:47:55;7.17;;;4.07;;
14001;SDS011;7076;51.280;12.584;2022-11-23T05:53:14;4.07;;;3.30;;
14001;SDS011;7076;51.280;12.584;2022-11-23T05:58:20;7.40;;;5.00;;
14001;SDS011;7076;51.280;12.584;2022-11-23T06:03:24;6.50;;;4.77;;
14001;SDS011;7076;51.280;12.584;2022-11-23T06:08:28;6.60;;;4.10;;
14001;SDS011;7076;51.280;12.584;2022-11-23T06:13:32;5.40;;;3.00;;
14001;SDS011;7076;51.280;12.584;2022-11-23T06:18:36;8.23;;;4.97;;
14001;SDS011;7076;51.280;12.584;2022-11-23T06:23:39;6.70;;;4.33;;
14001;SDS011;7076;51.280;12.584;2022-11-23T06:28:42;5.97;;;4.03;;
14001;SDS011;7076;51.280;12.584;2022-11-23T06:33:46;8.57;;;4.40;;
14001;SDS011;7076;51.280;12.584;2022-11-23T06:38:49;5.03;;;3.63;;
14001;SDS011;7076;51.280;12.584;2022-11-23T06:43:57;6.20;;;4.20;;
14001;SDS011;7076;51.280;12.584;2022-11-23T06:49:13;7.20;;;3.67;;
14001;SDS011;7076;51.280;12.584;2022-11-23T06:54:21;5.60;;;3.87;;
14001;SDS011;7076;51.280;12.584;2022-11-23T06:59:28;4.73;;;3.37;;
14001;SDS011;7076;51.280;12.584;2022-11-23T07:04:33;6.27;;;4.17;;
14001;SDS011;7076;51.280;12.584;2022-11-23T07:09:40;5.10;;;3.03;;
14001;SDS011;7076;51.280;12.584;2022-11-23T07:15:00;5.23;;;3.20;;
14001;SDS011;7076;51.280;12.584;2022-11-23T07:20:10;8.90;;;5.17;;
14001;SDS011;7076;51.280;12.584;2022-11-23T07:25:14;4.57;;;3.23;;
14001;SDS011;7076;51.280;12.584;2022-11-23T07:30:19;5.77;;;3.73;;
14001;SDS011;7076;51.280;12.584;2022-11-23T07:35:31;5.73;;;3.93;;
14001;SDS011;7076;51.280;12.584;2022-11-23T07:40:34;6.90;;;4.17;;
14001;SDS011;7076;51.280;12.584;2022-11-23T07:45:38;6.33;;;3.77;;
14001;SDS011;7076;51.280;12.584;2022-11-23T07:50:46;5.37;;;3.37;;
14001;SDS011;7076;51.280;12.584;2022-11-23T07:55:53;8.73;;;5.83;;
14001;SDS011;7076;51.280;12.584;2022-11-23T08:00:57;11.20;;;6.83;;
14001;SDS011;7076;51.280;12.584;2022-11-23T08:06:01;8.27;;;5.20;;
14001;SDS011;7076;51.280;12.584;2022-11-23T08:11:04;7.67;;;4.40;;
14001;SDS011;7076;51.280;12.584;2022-11-23T08:16:07;6.53;;;4.17;;
14001;SDS011;7076;51.280;12.584;2022-11-23T08:21:11;6.07;;;3.77;;
14001;SDS011;7076;51.280;12.584;2022-11-23T08:26:14;7.33;;;4.13;;
14001;SDS011;7076;51.280;12.584;2022-11-23T08:31:16;7.20;;;4.50;;
14001;SDS011;7076;51.280;12.584;2022-11-23T08:36:21;7.47;;;4.30;;
14001;SDS011;7076;51.280;12.584;2022-11-23T08:41:23;6.83;;;4.23;;
14001;SDS011;7076;51.280;12.584;2022-11-23T08:46:26;5.30;;;3.63;;
14001;SDS011;7076;51.280;12.584;2022-11-23T08:51:30;7.90;;;3.93;;
14001;SDS011;7076;51.280;12.584;2022-11-23T08:56:33;9.13;;;4.22;;
14001;SDS011;7076;51.280;12.584;2022-11-23T09:01:36;6.20;;;3.60;;
14001;SDS011;7076;51.280;12.584;2022-11-23T09:06:40;6.47;;;3.30;;
14001;SDS011;7076;51.280;12.584;2022-11-23T09:11:43;8.10;;;3.57;;
14001;SDS011;7076;51.280;12.584;2022-11-23T09:16:45;7.83;;;3.17;;
14001;SDS011;7076;51.280;12.584;2022-11-23T09:21:50;6.67;;;3.47;;
14001;SDS011;7076;51.280;12.584;2022-11-23T09:26:52;6.07;;;3.27;;
14001;SDS011;7076;51.280;12.584;2022-11-23T09:31:55;7.82;;;3.08;;
14001;SDS011;7076;51.280;12.584;2022-11-23T09:36:59;4.50;;;2.72;;
14001;SDS011;7076;51.280;12.584;2022-11-23T09:42:05;3.17;;;2.83;;
14001;SDS011;7076;51.280;12.584;2022-11-23T09:47:29;4.80;;;3.13;;
14001;SDS011;7076;51.280;12.584;2022-11-23T09:52:42;5.38;;;3.13;;
14001;SDS011;7076;51.280;12.584;2022-11-23T09:57:46;4.78;;;3.15;;
14001;SDS011;7076;51.280;12.584;2022-11-23T10:02:50;4.97;;;3.38;;
14001;SDS011;7076;51.280;12.584;2022-11-23T10:08:00;5.10;;;3.13;;
14001;SDS011;7076;51.280;12.584;2022-11-23T10:13:10;5.65;;;3.05;;
14001;SDS011;7076;51.280;12.584;2022-11-23T10:18:26;6.95;;;3.00;;
14001;SDS011;7076;51.280;12.584;2022-11-23T10:28:57;4.97;;;3.00;;
14001;SDS011;7076;51.280;12.584;2022-11-23T10:34:11;5.05;;;2.75;;
14001;SDS011;7076;51.280;12.584;2022-11-23T10:39:19;6.78;;;3.42;;
14001;SDS011;7076;51.280;12.584;2022-11-23T10:44:27;5.57;;;3.38;;
14001;SDS011;7076;51.280;12.584;2022-11-23T10:49:33;5.97;;;3.30;;
14001;SDS011;7076;51.280;12.584;2022-11-23T10:54:39;5.32;;;3.53;;
14001;SDS011;7076;51.280;12.584;2022-11-23T10:59:55;5.03;;;3.20;;
14001;SDS011;7076;51.280;12.584;2022-11-23T11:10:47;5.03;;;3.10;;
14001;SDS011;7076;51.280;12.584;2022-11-23T11:15:53;5.75;;;2.80;;
14001;SDS011;7076;51.280;12.584;2022-11-23T11:20:58;6.82;;;2.72;;
14001;SDS011;7076;51.280;12.584;2022-11-23T11:26:06;5.65;;;3.17;;
14001;SDS011;7076;51.280;12.584;2022-11-23T11:31:23;3.83;;;2.75;;
14001;SDS011;7076;51.280;12.584;2022-11-23T11:36:31;3.20;;;2.70;;
14001;SDS011;7076;51.280;12.584;2022-11-23T11:41:39;4.00;;;2.88;;
14001;SDS011;7076;51.280;12.584;2022-11-23T11:46:45;5.85;;;3.17;;
14001;SDS011;7076;51.280;12.584;2022-11-23T11:51:50;4.78;;;2.92;;
14001;SDS011;7076;51.280;12.584;2022-11-23T11:56:59;5.43;;;2.80;;
14001;SDS011;7076;51.280;12.584;2022-11-23T12:02:08;5.82;;;2.90;;
14001;SDS011;7076;51.280;12.584;2022-11-23T12:07:20;4.03;;;2.67;;
14001;SDS011;7076;51.280;12.584;2022-11-23T12:12:27;5.50;;;2.67;;
14001;SDS011;7076;51.280;12.584;2022-11-23T12:23:02;4.63;;;2.50;;
14001;SDS011;7076;51.280;12.584;2022-11-23T12:28:23;4.50;;;2.20;;
14001;SDS011;7076;51.280;12.584;2022-11-23T12:33:41;4.47;;;2.45;;
14001;SDS011;7076;51.280;12.584;2022-11-23T12:38:51;4.75;;;2.53;;
14001;SDS011;7076;51.280;12.584;2022-11-23T12:49:30;4.47;;;2.30;;
14001;SDS011;7076;51.280;12.584;2022-11-23T12:54:44;5.68;;;2.22;;
14001;SDS011;7076;51.280;12.584;2022-11-23T12:59:55;3.72;;;2.35;;
14001;SDS011;7076;51.280;12.584;2022-11-23T13:05:21;5.10;;;2.03;;
14001;SDS011;7076;51.280;12.584;2022-11-23T13:10:52;3.55;;;2.08;;
14001;SDS011;7076;51.280;12.584;2022-11-23T13:16:13;2.97;;;2.15;;
14001;SDS011;7076;51.280;12.584;2022-11-23T13:21:28;2.78;;;2.03;;
14001;SDS011;7076;51.280;12.584;2022-11-23T13:26:32;5.43;;;2.22;;
14001;SDS011;7076;51.280;12.584;2022-11-23T13:31:37;3.22;;;1.73;;
14001;SDS011;7076;51.280;12.584;2022-11-23T13:36:41;7.45;;;4.60;;
14001;SDS011;7076;51.280;12.584;2022-11-23T13:42:07;6.18;;;2.30;;
14001;SDS011;7076;51.280;12.584;2022-11-23T13:47:19;5.40;;;2.40;;
14001;SDS011;7076;51.280;12.584;2022-11-23T13:52:28;7.40;;;2.50;;
14001;SDS011;7076;51.280;12.584;2022-11-23T13:57:32;3.78;;;2.22;;
14001;SDS011;7076;51.280;12.584;2022-11-23T14:02:36;4.25;;;2.80;;
14001;SDS011;7076;51.280;12.584;2022-11-23T14:07:40;5.15;;;2.38;;
14001;SDS011;7076;51.280;12.584;2022-11-23T14:12:47;3.67;;;1.60;;
14001;SDS011;7076;51.280;12.584;2022-11-23T14:17:56;3.80;;;1.90;;
14001;SDS011;7076;51.280;12.584;2022-11-23T14:23:27;5.00;;;1.98;;
14001;SDS011;7076;51.280;12.584;2022-11-23T14:34:32;5.18;;;1.98;;
14001;SDS011;7076;51.280;12.584;2022-11-23T14:39:51;3.75;;;2.00;;
14001;SDS011;7076;51.280;12.584;2022-11-23T14:45:00;3.55;;;2.10;;
14001;SDS011;7076;51.280;12.584;2022-11-23T14:50:18;5.45;;;2.33;;
14001;SDS011;7076;51.280;12.584;2022-11-23T14:55:23;3.90;;;2.47;;
14001;SDS011;7076;51.280;12.584;2022-11-23T15:00:29;3.15;;;1.92;;
14001;SDS011;7076;51.280;12.584;2022-11-23T15:05:34;3.80;;;1.80;;
14001;SDS011;7076;51.280;12.584;2022-11-23T15:10:40;3.30;;;2.38;;
14001;SDS011;7076;51.280;12.584;2022-11-23T15:15:47;2.85;;;2.10;;
14001;SDS011;7076;51.280;12.584;2022-11-23T15:20:53;4.45;;;2.53;;
14001;SDS011;7076;51.280;12.584;2022-11-23T15:25:56;8.00;;;2.50;;
14001;SDS011;7076;51.280;12.584;2022-11-23T15:31:00;3.25;;;2.25;;
14001;SDS011;7076;51.280;12.584;2022-11-23T15:36:20;3.47;;;2.08;;
14001;SDS011;7076;51.280;12.584;2022-11-23T15:41:25;3.83;;;2.47;;
14001;SDS011;7076;51.280;12.584;2022-11-23T15:46:33;4.57;;;2.17;;
14001;SDS011;7076;51.280;12.584;2022-11-23T15:51:39;5.53;;;3.20;;
14001;SDS011;7076;51.280;12.584;2022-11-23T15:56:44;4.50;;;2.70;;
14001;SDS011;7076;51.280;12.584;2022-11-23T16:01:49;4.00;;;2.92;;
14001;SDS011;7076;51.280;12.584;2022-11-23T16:06:54;4.30;;;2.40;;
14001;SDS011;7076;51.280;12.584;2022-11-23T16:11:57;4.05;;;2.47;;
14001;SDS011;7076;51.280;12.584;2022-11-23T16:17:03;4.85;;;3.00;;
14001;SDS011;7076;51.280;12.584;2022-11-23T16:22:13;4.38;;;2.65;;
14001;SDS011;7076;51.280;12.584;2022-11-23T16:27:21;4.65;;;2.85;;
14001;SDS011;7076;51.280;12.584;2022-11-23T16:32:26;4.35;;;2.60;;
14001;SDS011;7076;51.280;12.584;2022-11-23T16:37:31;4.45;;;2.60;;
14001;SDS011;7076;51.280;12.584;2022-11-23T16:42:34;5.03;;;2.63;;
14001;SDS011;7076;51.280;12.584;2022-11-23T16:47:49;5.32;;;2.90;;
14001;SDS011;7076;51.280;12.584;2022-11-23T16:52:54;4.53;;;2.95;;
14001;SDS011;7076;51.280;12.584;2022-11-23T16:57:57;5.40;;;2.85;;
14001;SDS011;7076;51.280;12.584;2022-11-23T17:03:00;7.75;;;3.35;;
14001;SDS011;7076;51.280;12.584;2022-11-23T17:08:04;9.15;;;4.82;;
14001;SDS011;7076;51.280;12.584;2022-11-23T17:13:18;6.93;;;3.85;;
14001;SDS011;7076;51.280;12.584;2022-11-23T17:18:23;7.95;;;5.15;;
14001;SDS011;7076;51.280;12.584;2022-11-23T17:23:27;9.73;;;4.22;;
14001;SDS011;7076;51.280;12.584;2022-11-23T17:28:31;7.28;;;4.55;;
14001;SDS011;7076;51.280;12.584;2022-11-23T17:33:35;8.10;;;4.38;;
14001;SDS011;7076;51.280;12.584;2022-11-23T17:38:40;9.15;;;4.40;;
14001;SDS011;7076;51.280;12.584;2022-11-23T17:43:47;8.77;;;4.18;;
14001;SDS011;7076;51.280;12.584;2022-11-23T17:48:50;6.32;;;3.83;;
14001;SDS011;7076;51.280;12.584;2022-11-23T17:53:58;7.32;;;4.72;;
14001;SDS011;7076;51.280;12.584;2022-11-23T17:59:01;7.43;;;3.83;;
14001;SDS011;7076;51.280;12.584;2022-11-23T18:04:04;6.38;;;3.97;;
14001;SDS011;7076;51.280;12.584;2022-11-23T18:09:09;6.07;;;4.10;;
14001;SDS011;7076;51.280;12.584;2022-11-23T18:14:12;8.77;;;4.72;;
14001;SDS011;7076;51.280;12.584;2022-11-23T18:19:15;6.40;;;4.25;;
14001;SDS011;7076;51.280;12.584;2022-11-23T18:24:20;7.18;;;4.82;;
14001;SDS011;7076;51.280;12.584;2022-11-23T18:29:23;6.95;;;4.53;;
14001;SDS011;7076;51.280;12.584;2022-11-23T18:34:26;7.70;;;4.78;;
14001;SDS011;7076;51.280;12.584;2022-11-23T18:39:31;6.72;;;4.22;;
14001;SDS011;7076;51.280;12.584;2022-11-23T18:44:35;6.38;;;4.15;;
14001;SDS011;7076;51.280;12.584;2022-11-23T18:49:38;6.75;;;4.22;;
14001;SDS011;7076;51.280;12.584;2022-11-23T18:54:42;8.77;;;5.78;;
14001;SDS011;7076;51.280;12.584;2022-11-23T18:59:45;8.32;;;6.10;;
14001;SDS011;7076;51.280;12.584;2022-11-23T19:04:59;8.68;;;4.95;;
14001;SDS011;7076;51.280;12.584;2022-11-23T19:10:03;8.40;;;5.60;;
14001;SDS011;7076;51.280;12.584;2022-11-23T19:15:06;5.15;;;4.38;;
14001;SDS011;7076;51.280;12.584;2022-11-23T19:20:10;6.35;;;4.75;;
14001;SDS011;7076;51.280;12.584;2022-11-23T19:25:14;5.85;;;4.28;;
14001;SDS011;7076;51.280;12.584;2022-11-23T19:30:17;7.80;;;4.47;;
14001;SDS011;7076;51.280;12.584;2022-11-23T19:35:20;7.72;;;4.60;;
14001;SDS011;7076;51.280;12.584;2022-11-23T19:40:25;5.88;;;4.75;;
14001;SDS011;7076;51.280;12.584;2022-11-23T19:45:29;7.60;;;5.60;;
14001;SDS011;7076;51.280;12.584;2022-11-23T19:50:32;9.02;;;6.53;;
14001;SDS011;7076;51.280;12.584;2022-11-23T19:55:36;5.88;;;4.65;;
14001;SDS011;7076;51.280;12.584;2022-11-23T20:00:39;6.50;;;4.38;;
14001;SDS011;7076;51.280;12.584;2022-11-23T20:05:55;9.65;;;5.60;;
14001;SDS011;7076;51.280;12.584;2022-11-23T20:11:03;7.68;;;5.90;;
14001;SDS011;7076;51.280;12.584;2022-11-23T20:16:08;6.43;;;4.93;;
14001;SDS011;7076;51.280;12.584;2022-11-23T20:21:13;6.80;;;5.10;;
14001;SDS011;7076;51.280;12.584;2022-11-23T20:26:18;8.45;;;5.07;;
14001;SDS011;7076;51.280;12.584;2022-11-23T20:31:22;6.70;;;5.50;;
14001;SDS011;7076;51.280;12.584;2022-11-23T20:36:27;12.10;;;6.93;;
14001;SDS011;7076;51.280;12.584;2022-11-23T20:41:33;9.05;;;6.60;;
14001;SDS011;7076;51.280;12.584;2022-11-23T20:46:37;10.85;;;6.00;;
14001;SDS011;7076;51.280;12.584;2022-11-23T20:52:00;8.50;;;6.13;;
14001;SDS011;7076;51.280;12.584;2022-11-23T20:57:04;10.43;;;6.38;;
14001;SDS011;7076;51.280;12.584;2022-11-23T21:02:07;9.32;;;5.75;;
14001;SDS011;7076;51.280;12.584;2022-11-23T21:07:10;6.28;;;4.88;;
14001;SDS011;7076;51.280;12.584;2022-11-23T21:12:14;7.40;;;5.57;;
14001;SDS011;7076;51.280;12.584;2022-11-23T21:17:35;8.25;;;5.53;;
14001;SDS011;7076;51.280;12.584;2022-11-23T21:22:38;7.93;;;6.17;;
14001;SDS011;7076;51.280;12.584;2022-11-23T21:27:42;6.23;;;4.60;;
14001;SDS011;7076;51.280;12.584;2022-11-23T21:32:47;6.60;;;5.28;;
14001;SDS011;7076;51.280;12.584;2022-11-23T21:37:50;8.10;;;5.30;;
14001;SDS011;7076;51.280;12.584;2022-11-23T21:42:54;11.10;;;6.50;;
14001;SDS011;7076;51.280;12.584;2022-11-23T21:47:57;10.50;;;6.47;;
14001;SDS011;7076;51.280;12.584;2022-11-23T21:53:00;9.40;;;5.80;;
14001;SDS011;7076;51.280;12.584;2022-11-23T21:58:04;7.63;;;5.10;;
14001;SDS011;7076;51.280;12.584;2022-11-23T22:03:07;8.47;;;4.90;;
14001;SDS011;7076;51.280;12.584;2022-11-23T22:08:11;5.97;;;4.57;;
14001;SDS011;7076;51.280;12.584;2022-11-23T22:13:31;7.57;;;4.83;;
14001;SDS011;7076;51.280;12.584;2022-11-23T22:18:37;6.57;;;4.43;;
14001;SDS011;7076;51.280;12.584;2022-11-23T22:23:40;6.60;;;4.43;;
14001;SDS011;7076;51.280;12.584;2022-11-23T22:28:45;5.35;;;4.40;;
14001;SDS011;7076;51.280;12.584;2022-11-23T22:33:49;7.00;;;4.67;;
14001;SDS011;7076;51.280;12.584;2022-11-23T22:38:52;7.37;;;4.63;;
14001;SDS011;7076;51.280;12.584;2022-11-23T22:44:03;6.57;;;4.40;;
14001;SDS011;7076;51.280;12.584;2022-11-23T22:49:07;7.67;;;4.40;;
14001;SDS011;7076;51.280;12.584;2022-11-23T22:54:11;9.20;;;4.97;;
14001;SDS011;7076;51.280;12.584;2022-11-23T22:59:15;9.13;;;5.00;;
14001;SDS011;7076;51.280;12.584;2022-11-23T23:04:18;6.73;;;4.70;;
14001;SDS011;7076;51.280;12.584;2022-11-23T23:09:21;5.67;;;4.13;;
14001;SDS011;7076;51.280;12.584;2022-11-23T23:14:25;5.80;;;4.10;;
14001;SDS011;7076;51.280;12.584;2022-11-23T23:19:28;6.47;;;4.20;;
14001;SDS011;7076;51.280;12.584;2022-11-23T23:24:31;6.97;;;4.47;;
14001;SDS011;7076;51.280;12.584;2022-11-23T23:29:35;6.10;;;3.73;;
14001;SDS011;7076;51.280;12.584;2022-11-23T23:34:38;6.83;;;4.30;;
14001;SDS011;7076;51.280;12.584;2022-11-23T23:39:41;7.87;;;4.83;;
14001;SDS011;7076;51.280;12.584;2022-11-23T23:44:45;7.07;;;4.83;;
14001;SDS011;7076;51.280;12.584;2022-11-23T23:49:48;6.70;;;4.77;;
14001;SDS011;7076;51.280;12.584;2022-11-23T23:54:51;6.53;;;4.10;;
14001;SDS011;7076;51.280;12.584;2022-11-23T23:59:55;6.10;;;4.60;;
